sensor_id;sensor_type;location;lat;lon;timestamp;pressure;altitude;pressure_sealevel;temperature;humidity
49813;BME280;35706;52.100;5.056;2023-11-22T00:00:14;102714.16;;;8.36;100.00
49813;BME280;35706;52.100;5.056;2023-11-22T00:01:15;102714.50;;;8.28;100.00
49813;BME280;35706;52.100;5.056;2023-11-22T00:02:15;102719.69;;;8.30;100.00
49813;BME280;35706;52.100;5.056;2023-11-22T00:03:15;102722.75;;;8.38;100.00
49813;BME280;35706;52.100;5.056;2023-11-22T00:04:15;102726.38;;;8.35;100.00
49813;BME280;35706;52.100;5.056;2023-11-22T00:05:17;102714.16;;;8.36;100.00
49813;BME280;35706;52.100;5.056;2023-11-22T00:06:18;102718.63;;;8.34;100.00
49813;BME280;35706;52.100;5.056;2023-11-22T00:07:21;102721.91;;;8.38;100.00
49813;BME280;35706;52.100;5.056;2023-11-22T00:08:21;102730.00;;;8.33;100.00
49813;BME280;35706;52.100;5.056;2023-11-22T00:09:21;102721.38;;;8.31;100.00
49813;BME280;35706;52.100;5.056;2023-11-22T00:10:23;102726.47;;;8.34;100.00
49813;BME280;35706;52.100;5.056;2023-11-22T00:11:23;102724.47;;;8.39;100.00
49813;BME280;35706;52.100;5.056;2023-11-22T00:12:24;102732.56;;;8.34;100.00
49813;BME280;35706;52.100;5.056;2023-11-22T00:13:24;102725.19;;;8.43;100.00
49813;BME280;35706;52.100;5.056;2023-11-22T00:14:25;102726.88;;;8.44;100.00
49813;BME280;35706;52.100;5.056;2023-11-22T00:15:26;102723.97;;;8.50;100.00
49813;BME280;35706;52.100;5.056;2023-11-22T00:16:27;102730.97;;;8.49;100.00
49813;BME280;35706;52.100;5.056;2023-11-22T00:17:27;102731.38;;;8.40;100.00
49813;BME280;35706;52.100;5.056;2023-11-22T00:18:27;102728.84;;;8.58;100.00
49813;BME280;35706;52.100;5.056;2023-11-22T00:19:28;102725.88;;;8.46;99.92
49813;BME280;35706;52.100;5.056;2023-11-22T00:20:28;102733.13;;;8.41;100.00
49813;BME280;35706;52.100;5.056;2023-11-22T00:21:28;102740.72;;;8.28;100.00
49813;BME280;35706;52.100;5.056;2023-11-22T00:22:29;102736.19;;;8.32;100.00
49813;BME280;35706;52.100;5.056;2023-11-22T00:23:32;102734.00;;;8.23;100.00
49813;BME280;35706;52.100;5.056;2023-11-22T00:24:32;102737.25;;;8.28;100.00
49813;BME280;35706;52.100;5.056;2023-11-22T00:25:33;102735.41;;;8.30;100.00
49813;BME280;35706;52.100;5.056;2023-11-22T00:26:33;102735.41;;;8.30;100.00
49813;BME280;35706;52.100;5.056;2023-11-22T00:27:34;102736.31;;;8.29;100.00
49813;BME280;35706;52.100;5.056;2023-11-22T00:28:34;102738.88;;;8.30;100.00
49813;BME280;35706;52.100;5.056;2023-11-22T00:29:34;102742.50;;;8.28;100.00
49813;BME280;35706;52.100;5.056;2023-11-22T00:30:35;102734.16;;;8.20;100.00
49813;BME280;35706;52.100;5.056;2023-11-22T00:31:35;102740.75;;;8.09;100.00
49813;BME280;35706;52.100;5.056;2023-11-22T00:32:35;102740.94;;;8.24;100.00
49813;BME280;35706;52.100;5.056;2023-11-22T00:33:36;102745.41;;;8.22;100.00
49813;BME280;35706;52.100;5.056;2023-11-22T00:34:36;102737.84;;;8.15;100.00
49813;BME280;35706;52.100;5.056;2023-11-22T00:35:36;102742.06;;;8.18;100.00
49813;BME280;35706;52.100;5.056;2023-11-22T00:36:37;102736.84;;;8.18;100.00
49813;BME280;35706;52.100;5.056;2023-11-22T00:37:37;102735.59;;;8.25;100.00
49813;BME280;35706;52.100;5.056;2023-11-22T00:38:37;102736.03;;;8.35;100.00
49813;BME280;35706;52.100;5.056;2023-11-22T00:39:39;102738.81;;;8.32;100.00
49813;BME280;35706;52.100;5.056;2023-11-22T00:40:39;102732.31;;;8.39;100.00
49813;BME280;35706;52.100;5.056;2023-11-22T00:41:40;102731.56;;;8.37;100.00
49813;BME280;35706;52.100;5.056;2023-11-22T00:42:40;102725.38;;;8.38;100.00
49813;BME280;35706;52.100;5.056;2023-11-22T00:43:42;102733.84;;;8.26;100.00
49813;BME280;35706;52.100;5.056;2023-11-22T00:44:43;102728.38;;;8.30;100.00
49813;BME280;35706;52.100;5.056;2023-11-22T00:45:43;102724.16;;;8.28;100.00
49813;BME280;35706;52.100;5.056;2023-11-22T00:46:43;102727.31;;;8.17;100.00
49813;BME280;35706;52.100;5.056;2023-11-22T00:47:45;102730.81;;;8.16;100.00
49813;BME280;35706;52.100;5.056;2023-11-22T00:48:45;102726.78;;;8.28;100.00
49813;BME280;35706;52.100;5.056;2023-11-22T00:49:46;102732.78;;;8.30;100.00
49813;BME280;35706;52.100;5.056;2023-11-22T00:50:46;102736.47;;;8.26;100.00
49813;BME280;35706;52.100;5.056;2023-11-22T00:51:46;102733.84;;;8.26;100.00
49813;BME280;35706;52.100;5.056;2023-11-22T00:52:48;102739.00;;;8.27;100.00
49813;BME280;35706;52.100;5.056;2023-11-22T00:53:48;102740.72;;;8.28;100.00
49813;BME280;35706;52.100;5.056;2023-11-22T00:54:49;102739.78;;;8.29;100.00
49813;BME280;35706;52.100;5.056;2023-11-22T00:55:50;102739.00;;;8.27;100.00
49813;BME280;35706;52.100;5.056;2023-11-22T00:56:50;102743.28;;;8.30;100.00
49813;BME280;35706;52.100;5.056;2023-11-22T00:57:50;102740.56;;;8.31;100.00
49813;BME280;35706;52.100;5.056;2023-11-22T00:58:51;102746.34;;;8.38;100.00
49813;BME280;35706;52.100;5.056;2023-11-22T00:59:53;102742.97;;;8.36;100.00
49813;BME280;35706;52.100;5.056;2023-11-22T01:00:54;102758.75;;;8.34;100.00
49813;BME280;35706;52.100;5.056;2023-11-22T01:01:54;102758.81;;;8.33;100.00
49813;BME280;35706;52.100;5.056;2023-11-22T01:02:55;102763.06;;;8.35;100.00
49813;BME280;35706;52.100;5.056;2023-11-22T01:03:55;102760.66;;;8.31;100.00
49813;BME280;35706;52.100;5.056;2023-11-22T01:04:55;102765.06;;;8.30;100.00
49813;BME280;35706;52.100;5.056;2023-11-22T01:05:55;102770.94;;;8.35;100.00
49813;BME280;35706;52.100;5.056;2023-11-22T01:06:56;102768.41;;;8.34;100.00
49813;BME280;35706;52.100;5.056;2023-11-22T01:07:56;102773.72;;;8.32;100.00
49813;BME280;35706;52.100;5.056;2023-11-22T01:08:56;102769.31;;;8.33;100.00
49813;BME280;35706;52.100;5.056;2023-11-22T01:09:57;102785.81;;;8.35;100.00
49813;BME280;35706;52.100;5.056;2023-11-22T01:10:57;102777.78;;;8.38;100.00
49813;BME280;35706;52.100;5.056;2023-11-22T01:11:58;102787.22;;;8.42;100.00
49813;BME280;35706;52.100;5.056;2023-11-22T01:12:58;102782.19;;;8.38;100.00
49813;BME280;35706;52.100;5.056;2023-11-22T01:13:59;102782.75;;;8.44;100.00
49813;BME280;35706;52.100;5.056;2023-11-22T01:14:59;102783.69;;;8.43;99.67
49813;BME280;35706;52.100;5.056;2023-11-22T01:15:59;102783.22;;;8.52;99.53
49813;BME280;35706;52.100;5.056;2023-11-22T01:17:00;102789.94;;;8.41;99.45
49813;BME280;35706;52.100;5.056;2023-11-22T01:18:00;102803.06;;;8.39;100.00
49813;BME280;35706;52.100;5.056;2023-11-22T01:19:00;102798.19;;;8.31;100.00
49813;BME280;35706;52.100;5.056;2023-11-22T01:20:02;102792.88;;;8.33;100.00
49813;BME280;35706;52.100;5.056;2023-11-22T01:21:03;102794.59;;;8.34;100.00
49813;BME280;35706;52.100;5.056;2023-11-22T01:22:04;102800.69;;;8.34;100.00
49813;BME280;35706;52.100;5.056;2023-11-22T01:23:04;102800.44;;;8.41;100.00
49813;BME280;35706;52.100;5.056;2023-11-22T01:24:05;102801.97;;;8.45;100.00
49813;BME280;35706;52.100;5.056;2023-11-22T01:25:06;102798.69;;;8.40;100.00
49813;BME280;35706;52.100;5.056;2023-11-22T01:26:06;102797.72;;;8.42;99.49
49813;BME280;35706;52.100;5.056;2023-11-22T01:27:06;102799.13;;;8.49;99.60
49813;BME280;35706;52.100;5.056;2023-11-22T01:28:07;102803.91;;;8.40;99.62
49813;BME280;35706;52.100;5.056;2023-11-22T01:29:07;102800.91;;;8.30;99.97
49813;BME280;35706;52.100;5.056;2023-11-22T01:30:07;102805.09;;;8.34;100.00
49813;BME280;35706;52.100;5.056;2023-11-22T01:31:08;102801.88;;;8.27;100.00
49813;BME280;35706;52.100;5.056;2023-11-22T01:32:08;102813.78;;;8.34;100.00
49813;BME280;35706;52.100;5.056;2023-11-22T01:33:09;102812.63;;;8.40;100.00
49813;BME280;35706;52.100;5.056;2023-11-22T01:34:09;102811.84;;;8.38;100.00
49813;BME280;35706;52.100;5.056;2023-11-22T01:35:09;102811.94;;;8.36;100.00
49813;BME280;35706;52.100;5.056;2023-11-22T01:36:10;102809.53;;;8.32;99.89
49813;BME280;35706;52.100;5.056;2023-11-22T01:37:10;102809.97;;;8.23;100.00
49813;BME280;35706;52.100;5.056;2023-11-22T01:38:10;102804.66;;;8.24;100.00
49813;BME280;35706;52.100;5.056;2023-11-22T01:39:11;102803.25;;;8.17;100.00
49813;BME280;35706;52.100;5.056;2023-11-22T01:40:15;102809.06;;;8.24;100.00
49813;BME280;35706;52.100;5.056;2023-11-22T01:41:15;102802.25;;;8.20;100.00
49813;BME280;35706;52.100;5.056;2023-11-22T01:42:16;102807.41;;;8.21;100.00
49813;BME280;35706;52.100;5.056;2023-11-22T01:43:18;102810.91;;;8.22;100.00
49813;BME280;35706;52.100;5.056;2023-11-22T01:44:18;102803.25;;;8.17;100.00
49813;BME280;35706;52.100;5.056;2023-11-22T01:45:19;102805.88;;;8.17;100.00
49813;BME280;35706;52.100;5.056;2023-11-22T01:46:24;102807.78;;;8.13;100.00
49813;BME280;35706;52.100;5.056;2023-11-22T01:47:25;102808.00;;;8.09;100.00
49813;BME280;35706;52.100;5.056;2023-11-22T01:48:27;102805.44;;;8.07;100.00
49813;BME280;35706;52.100;5.056;2023-11-22T01:49:27;102809.91;;;8.05;100.00
49813;BME280;35706;52.100;5.056;2023-11-22T01:50:28;102803.09;;;8.20;100.00
49813;BME280;35706;52.100;5.056;2023-11-22T01:51:28;102802.00;;;8.07;100.00
49813;BME280;35706;52.100;5.056;2023-11-22T01:52:29;102796.53;;;8.11;100.00
49813;BME280;35706;52.100;5.056;2023-11-22T01:53:30;102797.59;;;8.07;100.00
49813;BME280;35706;52.100;5.056;2023-11-22T01:54:32;102793.91;;;8.11;100.00
49813;BME280;35706;52.100;5.056;2023-11-22T01:55:34;102791.94;;;7.98;100.00
49813;BME280;35706;52.100;5.056;2023-11-22T01:56:36;102794.47;;;7.99;100.00
49813;BME280;35706;52.100;5.056;2023-11-22T01:57:37;102798.94;;;7.97;100.00
49813;BME280;35706;52.100;5.056;2023-11-22T01:58:38;102803.34;;;7.97;100.00
49813;BME280;35706;52.100;5.056;2023-11-22T01:59:38;102802.78;;;8.09;100.00
49813;BME280;35706;52.100;5.056;2023-11-22T02:00:45;102790.63;;;8.25;100.00
49813;BME280;35706;52.100;5.056;2023-11-22T02:01:48;102794.03;;;8.27;100.00
49813;BME280;35706;52.100;5.056;2023-11-22T02:02:49;102789.44;;;8.13;100.00
49813;BME280;35706;52.100;5.056;2023-11-22T02:03:49;102800.22;;;8.07;100.00
49813;BME280;35706;52.100;5.056;2023-11-22T02:04:52;102791.34;;;8.10;100.00
49813;BME280;35706;52.100;5.056;2023-11-22T02:05:52;102790.78;;;8.22;100.00
49813;BME280;35706;52.100;5.056;2023-11-22T02:06:54;102792.06;;;8.13;100.00
49813;BME280;35706;52.100;5.056;2023-11-22T02:07:55;102797.88;;;8.20;100.00
49813;BME280;35706;52.100;5.056;2023-11-22T02:08:55;102796.47;;;8.13;100.00
49813;BME280;35706;52.100;5.056;2023-11-22T02:09:56;102802.56;;;8.13;100.00
49813;BME280;35706;52.100;5.056;2023-11-22T02:10:58;102807.91;;;8.10;100.00
49813;BME280;35706;52.100;5.056;2023-11-22T02:11:59;102806.28;;;8.08;100.00
49813;BME280;35706;52.100;5.056;2023-11-22T02:12:59;102805.28;;;8.10;100.00
49813;BME280;35706;52.100;5.056;2023-11-22T02:14:04;102816.78;;;8.08;100.00
49813;BME280;35706;52.100;5.056;2023-11-22T02:15:07;102815.94;;;8.07;100.00
49813;BME280;35706;52.100;5.056;2023-11-22T02:16:07;102826.34;;;8.09;100.00
49813;BME280;35706;52.100;5.056;2023-11-22T02:17:08;102818.88;;;8.19;100.00
49813;BME280;35706;52.100;5.056;2023-11-22T02:18:08;102817.63;;;8.08;100.00
49813;BME280;35706;52.100;5.056;2023-11-22T02:19:14;102821.38;;;8.22;100.00
49813;BME280;35706;52.100;5.056;2023-11-22T02:20:15;102822.66;;;8.13;100.00
49813;BME280;35706;52.100;5.056;2023-11-22T02:21:18;102824.13;;;8.19;100.00
49813;BME280;35706;52.100;5.056;2023-11-22T02:22:19;102805.28;;;8.10;100.00
49813;BME280;35706;52.100;5.056;2023-11-22T02:23:19;102817.63;;;8.08;100.00
49813;BME280;35706;52.100;5.056;2023-11-22T02:24:19;102819.09;;;8.14;100.00
49813;BME280;35706;52.100;5.056;2023-11-22T02:25:20;102816.00;;;8.06;100.00
49813;BME280;35706;52.100;5.056;2023-11-22T02:26:20;102807.28;;;8.05;100.00
49813;BME280;35706;52.100;5.056;2023-11-22T02:27:20;102812.75;;;8.01;99.99
49813;BME280;35706;52.100;5.056;2023-11-22T02:28:21;102807.84;;;8.12;100.00
49813;BME280;35706;52.100;5.056;2023-11-22T02:29:21;102799.44;;;8.05;100.00
49813;BME280;35706;52.100;5.056;2023-11-22T02:30:21;102792.63;;;8.01;100.00
49813;BME280;35706;52.100;5.056;2023-11-22T02:31:24;102791.25;;;7.94;100.00
49813;BME280;35706;52.100;5.056;2023-11-22T02:32:24;102790.38;;;7.93;100.00
49813;BME280;35706;52.100;5.056;2023-11-22T02:33:24;102790.25;;;7.97;100.00
49813;BME280;35706;52.100;5.056;2023-11-22T02:34:25;102784.22;;;7.94;100.00
49813;BME280;35706;52.100;5.056;2023-11-22T02:35:25;102787.69;;;7.95;100.00
49813;BME280;35706;52.100;5.056;2023-11-22T02:36:27;102779.91;;;7.93;100.00
49813;BME280;35706;52.100;5.056;2023-11-22T02:37:27;102790.09;;;8.00;100.00
49813;BME280;35706;52.100;5.056;2023-11-22T02:38:28;102784.94;;;7.98;100.00
49813;BME280;35706;52.100;5.056;2023-11-22T02:39:35;102793.25;;;8.06;100.00
49813;BME280;35706;52.100;5.056;2023-11-22T02:40:40;102785.72;;;8.00;100.00
49813;BME280;35706;52.100;5.056;2023-11-22T02:41:41;102790.75;;;8.05;100.00
49813;BME280;35706;52.100;5.056;2023-11-22T02:42:41;102792.63;;;8.01;100.00
49813;BME280;35706;52.100;5.056;2023-11-22T02:43:41;102786.28;;;8.07;100.00
49813;BME280;35706;52.100;5.056;2023-11-22T02:44:41;102791.63;;;8.04;100.00
49813;BME280;35706;52.100;5.056;2023-11-22T02:45:42;102797.03;;;8.20;99.87
49813;BME280;35706;52.100;5.056;2023-11-22T02:46:43;102798.22;;;8.12;100.00
49813;BME280;35706;52.100;5.056;2023-11-22T02:47:44;102800.72;;;8.15;100.00
49813;BME280;35706;52.100;5.056;2023-11-22T02:48:44;102799.00;;;8.14;100.00
49813;BME280;35706;52.100;5.056;2023-11-22T02:49:45;102800.84;;;8.12;100.00
49813;BME280;35706;52.100;5.056;2023-11-22T02:50:45;102795.69;;;8.11;100.00
49813;BME280;35706;52.100;5.056;2023-11-22T02:51:45;102801.72;;;8.13;100.00
49813;BME280;35706;52.100;5.056;2023-11-22T02:52:46;102799.38;;;8.07;99.94
49813;BME280;35706;52.100;5.056;2023-11-22T02:53:47;102793.47;;;8.02;100.00
49813;BME280;35706;52.100;5.056;2023-11-22T02:54:48;102793.13;;;8.09;100.00
49813;BME280;35706;52.100;5.056;2023-11-22T02:55:49;102795.75;;;8.09;100.00
49813;BME280;35706;52.100;5.056;2023-11-22T02:56:49;102797.72;;;8.04;100.00
49813;BME280;35706;52.100;5.056;2023-11-22T02:57:49;102789.88;;;8.04;100.00
49813;BME280;35706;52.100;5.056;2023-11-22T02:58:50;102794.47;;;7.99;100.00
49813;BME280;35706;52.100;5.056;2023-11-22T02:59:50;102792.91;;;7.95;100.00
49813;BME280;35706;52.100;5.056;2023-11-22T03:00:51;102796.75;;;8.07;100.00
49813;BME280;35706;52.100;5.056;2023-11-22T03:01:54;102791.81;;;8.01;100.00
49813;BME280;35706;52.100;5.056;2023-11-22T03:02:56;102795.25;;;8.01;100.00
49813;BME280;35706;52.100;5.056;2023-11-22T03:03:57;102796.38;;;7.95;100.00
49813;BME280;35706;52.100;5.056;2023-11-22T03:04:59;102794.47;;;7.99;100.00
49813;BME280;35706;52.100;5.056;2023-11-22T03:05:59;102795.31;;;8.00;100.00
49813;BME280;35706;52.100;5.056;2023-11-22T03:07:00;102794.41;;;8.01;100.00
49813;BME280;35706;52.100;5.056;2023-11-22T03:08:00;102794.81;;;7.91;100.00
49813;BME280;35706;52.100;5.056;2023-11-22T03:09:00;102787.97;;;7.89;100.00
49813;BME280;35706;52.100;5.056;2023-11-22T03:10:03;102785.28;;;7.90;100.00
49813;BME280;35706;52.100;5.056;2023-11-22T03:11:03;102790.31;;;7.95;100.00
49813;BME280;35706;52.100;5.056;2023-11-22T03:12:04;102791.25;;;7.94;100.00
49813;BME280;35706;52.100;5.056;2023-11-22T03:13:04;102796.53;;;7.92;100.00
49813;BME280;35706;52.100;5.056;2023-11-22T03:14:05;102795.59;;;7.93;100.00
49813;BME280;35706;52.100;5.056;2023-11-22T03:15:06;102799.28;;;7.89;100.00
49813;BME280;35706;52.100;5.056;2023-11-22T03:16:06;102800.22;;;7.88;100.00
49813;BME280;35706;52.100;5.056;2023-11-22T03:17:08;102798.81;;;8.00;100.00
49813;BME280;35706;52.100;5.056;2023-11-22T03:18:08;102809.41;;;7.97;100.00
49813;BME280;35706;52.100;5.056;2023-11-22T03:19:09;102804.53;;;8.08;99.66
49813;BME280;35706;52.100;5.056;2023-11-22T03:20:10;102822.44;;;7.99;99.92
49813;BME280;35706;52.100;5.056;2023-11-22T03:21:11;102811.41;;;7.92;100.00
49813;BME280;35706;52.100;5.056;2023-11-22T03:22:11;102812.47;;;7.88;100.00
49813;BME280;35706;52.100;5.056;2023-11-22T03:23:12;102809.41;;;7.78;100.00
49813;BME280;35706;52.100;5.056;2023-11-22T03:24:12;102820.38;;;7.67;100.00
49813;BME280;35706;52.100;5.056;2023-11-22T03:25:13;102820.16;;;7.72;100.00
49813;BME280;35706;52.100;5.056;2023-11-22T03:26:14;102818.47;;;7.71;100.00
49813;BME280;35706;52.100;5.056;2023-11-22T03:27:14;102816.97;;;7.84;100.00
49813;BME280;35706;52.100;5.056;2023-11-22T03:28:14;102824.34;;;7.95;100.00
49813;BME280;35706;52.100;5.056;2023-11-22T03:29:15;102826.63;;;7.84;100.00
49813;BME280;35706;52.100;5.056;2023-11-22T03:30:18;102829.56;;;7.76;100.00
49813;BME280;35706;52.100;5.056;2023-11-22T03:31:20;102827.31;;;7.68;100.00
49813;BME280;35706;52.100;5.056;2023-11-22T03:32:20;102840.47;;;7.67;100.00
49813;BME280;35706;52.100;5.056;2023-11-22T03:33:20;102844.06;;;7.64;100.00
49813;BME280;35706;52.100;5.056;2023-11-22T03:34:21;102844.97;;;7.63;100.00
49813;BME280;35706;52.100;5.056;2023-11-22T03:35:21;102848.00;;;7.54;100.00
49813;BME280;35706;52.100;5.056;2023-11-22T03:36:22;102848.59;;;7.61;100.00
49813;BME280;35706;52.100;5.056;2023-11-22T03:37:23;102852.19;;;7.58;100.00
49813;BME280;35706;52.100;5.056;2023-11-22T03:38:24;102859.09;;;7.59;100.00
49813;BME280;35706;52.100;5.056;2023-11-22T03:39:25;102856.28;;;7.64;100.00
49813;BME280;35706;52.100;5.056;2023-11-22T03:40:25;102859.63;;;7.67;100.00
49813;BME280;35706;52.100;5.056;2023-11-22T03:41:25;102866.47;;;7.70;100.00
49813;BME280;35706;52.100;5.056;2023-11-22T03:42:26;102874.44;;;7.68;100.00
49813;BME280;35706;52.100;5.056;2023-11-22T03:43:29;102865.78;;;7.66;100.00
49813;BME280;35706;52.100;5.056;2023-11-22T03:44:29;102869.19;;;7.68;100.00
49813;BME280;35706;52.100;5.056;2023-11-22T03:45:30;102872.59;;;7.70;100.00
49813;BME280;35706;52.100;5.056;2023-11-22T03:46:30;102873.91;;;7.60;100.00
49813;BME280;35706;52.100;5.056;2023-11-22T03:47:30;102873.16;;;7.77;100.00
49813;BME280;35706;52.100;5.056;2023-11-22T03:48:32;102881.63;;;7.63;100.00
49813;BME280;35706;52.100;5.056;2023-11-22T03:49:33;102876.31;;;7.65;100.00
49813;BME280;35706;52.100;5.056;2023-11-22T03:50:33;102879.78;;;7.65;100.00
49813;BME280;35706;52.100;5.056;2023-11-22T03:51:34;102879.78;;;7.65;100.00
49813;BME280;35706;52.100;5.056;2023-11-22T03:52:35;102880.97;;;7.58;100.00
49813;BME280;35706;52.100;5.056;2023-11-22T03:53:36;102876.91;;;7.51;100.00
49813;BME280;35706;52.100;5.056;2023-11-22T03:54:37;102883.00;;;7.51;100.00
49813;BME280;35706;52.100;5.056;2023-11-22T03:55:38;102887.25;;;7.54;100.00
49813;BME280;35706;52.100;5.056;2023-11-22T03:56:39;102888.31;;;7.50;100.00
49813;BME280;35706;52.100;5.056;2023-11-22T03:57:39;102893.59;;;7.48;100.00
49813;BME280;35706;52.100;5.056;2023-11-22T03:58:40;102887.13;;;7.57;100.00
49813;BME280;35706;52.100;5.056;2023-11-22T03:59:40;102886.22;;;7.58;100.00
49813;BME280;35706;52.100;5.056;2023-11-22T04:00:40;102884.38;;;7.60;100.00
49813;BME280;35706;52.100;5.056;2023-11-22T04:01:41;102886.22;;;7.58;100.00
49813;BME280;35706;52.100;5.056;2023-11-22T04:02:41;102889.72;;;7.78;100.00
49813;BME280;35706;52.100;5.056;2023-11-22T04:03:42;102884.97;;;7.67;100.00
49813;BME280;35706;52.100;5.056;2023-11-22T04:04:42;102891.31;;;7.61;100.00
49813;BME280;35706;52.100;5.056;2023-11-22T04:05:42;102895.63;;;7.62;100.00
49813;BME280;35706;52.100;5.056;2023-11-22T04:06:43;102885.47;;;7.54;100.00
49813;BME280;35706;52.100;5.056;2023-11-22T04:07:43;102890.00;;;7.71;100.00
49813;BME280;35706;52.100;5.056;2023-11-22T04:08:44;102890.47;;;7.61;100.00
49813;BME280;35706;52.100;5.056;2023-11-22T04:09:44;102888.56;;;7.64;100.00
49813;BME280;35706;52.100;5.056;2023-11-22T04:10:44;102893.06;;;7.61;100.00
49813;BME280;35706;52.100;5.056;2023-11-22T04:11:46;102895.84;;;7.77;100.00
49813;BME280;35706;52.100;5.056;2023-11-22T04:12:48;102891.81;;;7.69;100.00
49813;BME280;35706;52.100;5.056;2023-11-22T04:13:49;102893.91;;;7.61;100.00
49813;BME280;35706;52.100;5.056;2023-11-22T04:14:49;102884.59;;;7.74;100.00
49813;BME280;35706;52.100;5.056;2023-11-22T04:15:51;102899.63;;;7.71;100.00
49813;BME280;35706;52.100;5.056;2023-11-22T04:16:51;102899.63;;;7.71;100.00
49813;BME280;35706;52.100;5.056;2023-11-22T04:17:52;102903.06;;;7.71;100.00
49813;BME280;35706;52.100;5.056;2023-11-22T04:18:54;102908.47;;;7.68;100.00
49813;BME280;35706;52.100;5.056;2023-11-22T04:19:54;102905.31;;;7.60;100.00
49813;BME280;35706;52.100;5.056;2023-11-22T04:20:55;102899.03;;;7.64;100.00
49813;BME280;35706;52.100;5.056;2023-11-22T04:21:55;102904.13;;;7.67;100.00
49813;BME280;35706;52.100;5.056;2023-11-22T04:22:55;102900.50;;;7.70;100.00
49813;BME280;35706;52.100;5.056;2023-11-22T04:23:56;102896.34;;;7.66;100.00
49813;BME280;35706;52.100;5.056;2023-11-22T04:24:57;102901.66;;;7.64;100.00
49813;BME280;35706;52.100;5.056;2023-11-22T04:25:59;102899.03;;;7.64;100.00
49813;BME280;35706;52.100;5.056;2023-11-22T04:26:59;102904.38;;;7.61;100.00
49813;BME280;35706;52.100;5.056;2023-11-22T04:27:59;102906.16;;;7.61;100.00
49813;BME280;35706;52.100;5.056;2023-11-22T04:29:00;102899.94;;;7.63;100.00
49813;BME280;35706;52.100;5.056;2023-11-22T04:30:00;102901.72;;;7.63;100.00
49813;BME280;35706;52.100;5.056;2023-11-22T04:31:00;102907.16;;;7.58;100.00
49813;BME280;35706;52.100;5.056;2023-11-22T04:32:01;102913.28;;;7.57;100.00
49813;BME280;35706;52.100;5.056;2023-11-22T04:33:01;102910.28;;;7.66;100.00
49813;BME280;35706;52.100;5.056;2023-11-22T04:34:02;102908.78;;;7.61;100.00
49813;BME280;35706;52.100;5.056;2023-11-22T04:35:02;102909.31;;;7.69;100.00
49813;BME280;35706;52.100;5.056;2023-11-22T04:36:06;102913.09;;;7.62;100.00
49813;BME280;35706;52.100;5.056;2023-11-22T04:37:06;102911.44;;;7.59;100.00
49813;BME280;35706;52.100;5.056;2023-11-22T04:38:07;102922.28;;;7.51;100.00
49813;BME280;35706;52.100;5.056;2023-11-22T04:39:08;102931.22;;;7.66;100.00
49813;BME280;35706;52.100;5.056;2023-11-22T04:40:11;102926.00;;;7.66;99.90
49813;BME280;35706;52.100;5.056;2023-11-22T04:41:11;102925.91;;;7.68;99.67
49813;BME280;35706;52.100;5.056;2023-11-22T04:42:11;102927.75;;;7.66;99.22
49813;BME280;35706;52.100;5.056;2023-11-22T04:43:12;102922.59;;;7.64;99.09
49813;BME280;35706;52.100;5.056;2023-11-22T04:44:12;102921.53;;;7.68;98.97
49813;BME280;35706;52.100;5.056;2023-11-22T04:45:12;102920.16;;;7.60;99.19
49813;BME280;35706;52.100;5.056;2023-11-22T04:46:13;102921.03;;;7.60;98.81
49813;BME280;35706;52.100;5.056;2023-11-22T04:47:13;102914.91;;;7.60;99.31
49813;BME280;35706;52.100;5.056;2023-11-22T04:48:13;102911.72;;;7.53;98.92
49813;BME280;35706;52.100;5.056;2023-11-22T04:49:15;102908.78;;;7.61;98.77
49813;BME280;35706;52.100;5.056;2023-11-22T04:50:15;102908.06;;;7.57;98.64
49813;BME280;35706;52.100;5.056;2023-11-22T04:51:15;102915.00;;;7.58;99.04
49813;BME280;35706;52.100;5.056;2023-11-22T04:52:16;102912.28;;;7.60;99.06
49813;BME280;35706;52.100;5.056;2023-11-22T04:53:16;102910.59;;;7.59;98.81
49813;BME280;35706;52.100;5.056;2023-11-22T04:54:17;102909.09;;;7.53;98.96
49813;BME280;35706;52.100;5.056;2023-11-22T04:55:18;102908.09;;;7.55;98.98
49813;BME280;35706;52.100;5.056;2023-11-22T04:56:19;102915.13;;;7.55;99.11
49813;BME280;35706;52.100;5.056;2023-11-22T04:57:19;102907.78;;;7.63;98.41
49813;BME280;35706;52.100;5.056;2023-11-22T04:58:20;102915.38;;;7.49;98.36
49813;BME280;35706;52.100;5.056;2023-11-22T04:59:20;102919.91;;;7.45;98.51
49813;BME280;35706;52.100;5.056;2023-11-22T05:00:21;102923.16;;;7.50;99.22
49813;BME280;35706;52.100;5.056;2023-11-22T05:01:22;102919.81;;;7.47;99.08
49813;BME280;35706;52.100;5.056;2023-11-22T05:02:23;102924.00;;;7.51;98.59
49813;BME280;35706;52.100;5.056;2023-11-22T05:03:23;102917.41;;;7.42;98.50
49813;BME280;35706;52.100;5.056;2023-11-22T05:04:24;102916.31;;;7.48;98.48
49813;BME280;35706;52.100;5.056;2023-11-22T05:05:24;102910.59;;;7.38;98.36
49813;BME280;35706;52.100;5.056;2023-11-22T05:06:24;102907.13;;;7.38;98.27
49813;BME280;35706;52.100;5.056;2023-11-22T05:07:26;102904.47;;;7.39;99.56
49813;BME280;35706;52.100;5.056;2023-11-22T05:08:26;102899.94;;;7.43;99.38
49813;BME280;35706;52.100;5.056;2023-11-22T05:09:27;102895.63;;;7.42;98.32
49813;BME280;35706;52.100;5.056;2023-11-22T05:10:28;102899.94;;;7.43;98.59
49813;BME280;35706;52.100;5.056;2023-11-22T05:11:28;102902.50;;;7.44;98.70
49813;BME280;35706;52.100;5.056;2023-11-22T05:12:28;102900.13;;;7.59;98.33
49813;BME280;35706;52.100;5.056;2023-11-22T05:13:28;102910.13;;;7.49;97.98
49813;BME280;35706;52.100;5.056;2023-11-22T05:14:29;102908.44;;;7.48;97.53
49813;BME280;35706;52.100;5.056;2023-11-22T05:15:30;102899.41;;;7.55;97.93
49813;BME280;35706;52.100;5.056;2023-11-22T05:16:30;102907.22;;;7.57;98.16
49813;BME280;35706;52.100;5.056;2023-11-22T05:17:30;102910.72;;;7.55;98.15
49813;BME280;35706;52.100;5.056;2023-11-22T05:18:31;102906.88;;;7.64;97.69